Time;durP1;ratioP1;P1;durP2;ratioP2;P2;SDS_P1;SDS_P2;PMS_P1;PMS_P2;Temp;Humidity;BMP_temperature;BMP_pressure;BME280_temperature;BME280_humidity;BME280_pressure;Samples;Min_cycle;Max_cycle;Signal;HPM_P1;HPM_P2
2022/09/06 00:00:23;;;;;;;13.53;6.50;;;;;;;;;;4974518;28;20459;-48
2022/09/06 00:02:49;;;;;;;5.93;5.33;;;;;;;;;;4975258;28;20471;-50
2022/09/06 00:05:15;;;;;;;6.80;4.87;;;;;;;;;;4973442;28;20455;-51
2022/09/06 00:07:41;;;;;;;9.00;5.60;;;;;;;;;;4974735;28;20693;-46
2022/09/06 00:10:08;;;;;;;7.67;6.00;;;;;;;;;;4973588;28;20424;-48
2022/09/06 00:12:34;;;;;;;6.60;5.40;;;;;;;;;;4973877;28;20522;-49
2022/09/06 00:15:00;;;;;;;9.50;5.97;;;;;;;;;;4972317;28;20423;-46
2022/09/06 00:17:26;;;;;;;7.70;5.40;;;;;;;;;;4973776;28;20451;-48
2022/09/06 00:19:52;;;;;;;11.03;6.37;;;;;;;;;;4974220;28;20415;-47
2022/09/06 00:22:18;;;;;;;11.43;6.70;;;;;;;;;;4974261;28;20417;-47
2022/09/06 00:24:44;;;;;;;8.53;5.23;;;;;;;;;;4973199;28;20798;-46
2022/09/06 00:27:10;;;;;;;9.03;5.13;;;;;;;;;;4974043;28;20514;-49
2022/09/06 00:29:36;;;;;;;9.03;5.90;;;;;;;;;;4974384;28;20420;-46
2022/09/06 00:32:02;;;;;;;6.80;5.70;;;;;;;;;;4974650;28;20463;-49
2022/09/06 00:34:28;;;;;;;6.50;4.87;;;;;;;;;;4973121;28;20821;-47
2022/09/06 00:36:54;;;;;;;6.67;5.30;;;;;;;;;;4973228;28;20444;-48
2022/09/06 00:39:20;;;;;;;6.40;4.70;;;;;;;;;;4972985;28;20814;-49
2022/09/06 00:41:46;;;;;;;6.23;4.70;;;;;;;;;;4974174;28;20520;-49
2022/09/06 00:44:12;;;;;;;3.97;3.60;;;;;;;;;;4972903;28;20764;-51
2022/09/06 00:46:40;;;;;;;8.23;3.87;;;;;;;;;;4973356;28;20965;-47
2022/09/06 00:49:09;;;;;;;5.30;4.27;;;;;;;;;;4974104;28;20409;-46
2022/09/06 00:51:36;;;;;;;8.83;4.77;;;;;;;;;;4973079;28;20496;-49
2022/09/06 00:54:03;;;;;;;6.00;4.20;;;;;;;;;;4973181;28;20421;-49
2022/09/06 00:56:30;;;;;;;7.63;4.50;;;;;;;;;;4972994;28;20436;-47
2022/09/06 00:58:56;;;;;;;5.67;4.33;;;;;;;;;;4973449;28;20435;-48
2022/09/06 01:01:22;;;;;;;4.23;3.77;;;;;;;;;;4972901;28;20468;-48
2022/09/06 01:03:48;;;;;;;9.27;4.07;;;;;;;;;;4972802;28;20427;-48
2022/09/06 01:06:17;;;;;;;5.00;4.00;;;;;;;;;;4972441;28;20476;-52
2022/09/06 01:08:49;;;;;;;7.53;4.30;;;;;;;;;;4970267;28;20424;-49
2022/09/06 01:11:18;;;;;;;6.47;4.30;;;;;;;;;;4972096;28;20484;-48
2022/09/06 01:13:47;;;;;;;4.97;3.93;;;;;;;;;;4973201;28;20475;-49
2022/09/06 01:16:19;;;;;;;7.70;4.47;;;;;;;;;;4972071;28;20449;-49
2022/09/06 01:19:11;;;;;;;9.63;4.90;;;;;;;;;;4973381;28;20946;-47
2022/09/06 01:21:45;;;;;;;5.03;4.07;;;;;;;;;;4971037;28;20425;-51
2022/09/06 01:24:24;;;;;;;7.60;4.70;;;;;;;;;;4972898;28;20486;-50
2022/09/06 01:27:05;;;;;;;4.07;3.67;;;;;;;;;;4972550;28;20448;-51
2022/09/06 01:29:49;;;;;;;6.50;4.07;;;;;;;;;;4973265;28;20430;-51
2022/09/06 01:32:26;;;;;;;6.10;4.00;;;;;;;;;;4972981;28;20465;-51
2022/09/06 01:34:53;;;;;;;4.47;4.07;;;;;;;;;;4972096;28;20494;-51
2022/09/06 01:37:20;;;;;;;3.90;3.60;;;;;;;;;;4972692;28;20765;-50
2022/09/06 01:39:46;;;;;;;5.73;3.67;;;;;;;;;;4971921;28;20471;-50
2022/09/06 01:42:25;;;;;;;4.40;3.53;;;;;;;;;;4973193;28;20428;-51
2022/09/06 01:44:53;;;;;;;3.47;3.17;;;;;;;;;;4972450;28;20420;-50
2022/09/06 01:47:28;;;;;;;4.10;3.20;;;;;;;;;;4972347;28;20805;-51
2022/09/06 01:50:12;;;;;;;4.37;3.97;;;;;;;;;;4972984;28;20419;-51
2022/09/06 01:52:38;;;;;;;3.40;3.10;;;;;;;;;;4972455;28;20903;-51
2022/09/06 01:55:04;;;;;;;3.20;2.90;;;;;;;;;;4971167;28;20423;-51
2022/09/06 01:57:52;;;;;;;3.53;3.17;;;;;;;;;;4970917;28;20412;-51
2022/09/06 02:00:21;;;;;;;4.40;3.03;;;;;;;;;;4972536;28;20424;-51
2022/09/06 02:02:56;;;;;;;3.00;2.80;;;;;;;;;;4971971;28;20420;-51
2022/09/06 02:05:22;;;;;;;3.53;2.70;;;;;;;;;;4971272;28;20853;-50
2022/09/06 02:07:50;;;;;;;5.50;3.50;;;;;;;;;;4971721;28;20515;-52
2022/09/06 02:10:30;;;;;;;4.73;3.10;;;;;;;;;;4971319;28;20429;-51
2022/09/06 02:12:59;;;;;;;4.13;2.67;;;;;;;;;;4965506;28;20526;-50
2022/09/06 02:15:29;;;;;;;7.07;3.27;;;;;;;;;;4971799;28;20490;-51
2022/09/06 02:18:03;;;;;;;5.50;3.07;;;;;;;;;;4972873;28;20760;-51
2022/09/06 02:20:31;;;;;;;3.20;2.93;;;;;;;;;;4972279;28;20447;-51
2022/09/06 02:22:59;;;;;;;3.40;3.10;;;;;;;;;;4972678;28;20851;-51
2022/09/06 02:25:27;;;;;;;4.53;3.30;;;;;;;;;;4971933;28;20534;-50
2022/09/06 02:27:53;;;;;;;4.27;3.87;;;;;;;;;;4973065;28;20409;-51
2022/09/06 02:30:19;;;;;;;5.80;4.37;;;;;;;;;;4972820;28;20459;-51
2022/09/06 02:32:48;;;;;;;10.97;4.23;;;;;;;;;;4972550;28;20456;-51
2022/09/06 02:35:15;;;;;;;8.27;4.90;;;;;;;;;;4972101;28;20958;-51
2022/09/06 02:37:42;;;;;;;6.47;4.03;;;;;;;;;;4971344;28;20475;-50
2022/09/06 02:40:09;;;;;;;5.20;3.37;;;;;;;;;;4971381;28;20760;-51
2022/09/06 02:42:35;;;;;;;8.03;4.40;;;;;;;;;;4972687;28;20458;-51
2022/09/06 02:45:01;;;;;;;6.00;4.20;;;;;;;;;;4971829;28;20435;-51
2022/09/06 02:47:27;;;;;;;5.50;3.93;;;;;;;;;;4971887;28;20412;-51
2022/09/06 02:49:53;;;;;;;5.17;3.80;;;;;;;;;;4972390;28;20916;-51
2022/09/06 02:52:19;;;;;;;4.87;3.60;;;;;;;;;;4972681;28;20826;-52
2022/09/06 02:54:45;;;;;;;5.00;3.83;;;;;;;;;;4971931;28;20433;-51
2022/09/06 02:57:11;;;;;;;5.13;3.57;;;;;;;;;;4971853;28;20443;-51
2022/09/06 02:59:37;;;;;;;9.70;4.00;;;;;;;;;;4972462;28;20538;-51
2022/09/06 03:02:03;;;;;;;14.10;4.07;;;;;;;;;;4972073;28;20443;-50
2022/09/06 03:04:29;;;;;;;7.87;4.23;;;;;;;;;;4971988;28;20437;-51
2022/09/06 03:06:56;;;;;;;9.10;4.80;;;;;;;;;;4971518;28;20449;-51
2022/09/06 03:09:22;;;;;;;5.23;3.30;;;;;;;;;;4971044;28;21046;-50
2022/09/06 03:11:48;;;;;;;5.80;3.77;;;;;;;;;;4971308;28;20562;-51
2022/09/06 03:14:15;;;;;;;4.20;3.60;;;;;;;;;;4972500;28;20576;-51
2022/09/06 03:16:41;;;;;;;5.33;4.10;;;;;;;;;;4974968;28;20443;-51
2022/09/06 03:19:07;;;;;;;6.20;3.70;;;;;;;;;;4975380;28;20431;-51
2022/09/06 03:21:33;;;;;;;8.13;3.73;;;;;;;;;;4975505;28;20485;-50
2022/09/06 03:23:59;;;;;;;4.03;3.60;;;;;;;;;;4975526;28;20431;-50
2022/09/06 03:26:26;;;;;;;8.43;4.10;;;;;;;;;;4974869;28;20451;-52
2022/09/06 03:28:52;;;;;;;4.73;4.30;;;;;;;;;;4975033;28;20424;-53
2022/09/06 03:31:18;;;;;;;4.43;3.83;;;;;;;;;;4975210;28;20945;-53
2022/09/06 03:33:44;;;;;;;9.17;4.80;;;;;;;;;;4975114;28;20468;-54
2022/09/06 03:36:10;;;;;;;6.10;4.63;;;;;;;;;;4974558;28;20454;-53
2022/09/06 03:38:36;;;;;;;6.40;4.10;;;;;;;;;;4974168;28;20893;-53
2022/09/06 03:41:02;;;;;;;7.40;4.17;;;;;;;;;;4973308;28;20421;-52
2022/09/06 03:43:28;;;;;;;8.00;4.10;;;;;;;;;;4974822;28;20935;-53
2022/09/06 03:45:56;;;;;;;9.30;4.10;;;;;;;;;;4973279;28;20441;-51
2022/09/06 03:48:22;;;;;;;4.93;4.20;;;;;;;;;;4974781;28;20438;-53
2022/09/06 03:50:49;;;;;;;4.83;3.80;;;;;;;;;;4974777;28;20432;-53
2022/09/06 03:53:16;;;;;;;6.30;3.90;;;;;;;;;;4974870;28;20469;-53
2022/09/06 03:55:49;;;;;;;5.50;3.70;;;;;;;;;;4973263;28;20502;-54
2022/09/06 03:58:16;;;;;;;3.60;3.30;;;;;;;;;;4963704;28;20435;-52
2022/09/06 04:00:42;;;;;;;9.40;4.30;;;;;;;;;;4974223;28;20424;-54
2022/09/06 04:03:08;;;;;;;5.70;3.53;;;;;;;;;;4974806;28;20417;-54
2022/09/06 04:05:34;;;;;;;6.80;4.47;;;;;;;;;;4973915;28;20456;-53
2022/09/06 04:08:01;;;;;;;4.63;3.77;;;;;;;;;;4974199;28;20416;-54
2022/09/06 04:10:27;;;;;;;5.07;4.27;;;;;;;;;;4973393;28;20486;-53
2022/09/06 04:12:53;;;;;;;12.17;4.37;;;;;;;;;;4974293;28;20982;-53
2022/09/06 04:15:19;;;;;;;11.33;4.13;;;;;;;;;;4974056;28;20535;-52
2022/09/06 04:17:45;;;;;;;4.40;4.00;;;;;;;;;;4974392;28;20461;-52
2022/09/06 04:20:12;;;;;;;6.63;4.43;;;;;;;;;;4973853;28;20827;-51
2022/09/06 04:22:38;;;;;;;5.77;5.27;;;;;;;;;;4974220;28;20515;-51
2022/09/06 04:25:04;;;;;;;14.00;7.83;;;;;;;;;;4973884;28;20506;-53
2022/09/06 04:27:30;;;;;;;20.83;5.57;;;;;;;;;;4973709;28;20428;-53
2022/09/06 04:29:56;;;;;;;9.33;4.90;;;;;;;;;;4973825;28;20419;-53
2022/09/06 04:32:22;;;;;;;7.43;4.63;;;;;;;;;;4974021;28;20474;-54
2022/09/06 04:34:49;;;;;;;6.43;4.23;;;;;;;;;;4973935;28;20415;-53
2022/09/06 04:37:18;;;;;;;5.10;4.40;;;;;;;;;;4973524;28;20430;-53
2022/09/06 04:39:44;;;;;;;11.17;4.83;;;;;;;;;;4973007;28;20465;-53
2022/09/06 04:42:10;;;;;;;5.17;4.10;;;;;;;;;;4972870;28;20475;-53
2022/09/06 04:44:36;;;;;;;5.80;4.70;;;;;;;;;;4973726;28;20461;-52
2022/09/06 04:47:08;;;;;;;5.00;4.37;;;;;;;;;;4973202;28;20473;-51
2022/09/06 04:49:35;;;;;;;5.47;4.70;;;;;;;;;;4973793;28;20504;-51
2022/09/06 04:52:01;;;;;;;5.37;3.97;;;;;;;;;;4973868;28;20486;-54
2022/09/06 04:54:27;;;;;;;6.80;4.43;;;;;;;;;;4973942;28;20417;-51
2022/09/06 04:56:53;;;;;;;6.03;4.43;;;;;;;;;;4972418;28;20448;-51
2022/09/06 04:59:19;;;;;;;6.90;5.50;;;;;;;;;;4973464;28;20488;-50
2022/09/06 05:01:45;;;;;;;7.80;4.43;;;;;;;;;;4972856;28;20430;-51
2022/09/06 05:04:11;;;;;;;7.13;4.70;;;;;;;;;;4973795;28;20444;-54
2022/09/06 05:06:38;;;;;;;7.37;4.47;;;;;;;;;;4973211;28;20506;-53
2022/09/06 05:09:04;;;;;;;5.80;4.00;;;;;;;;;;4972966;28;20441;-52
2022/09/06 05:11:30;;;;;;;11.20;4.20;;;;;;;;;;4972720;28;20404;-53
2022/09/06 05:13:56;;;;;;;4.73;4.33;;;;;;;;;;4973443;28;20426;-53
2022/09/06 05:16:22;;;;;;;4.43;3.67;;;;;;;;;;4972968;28;20427;-51
2022/09/06 05:18:48;;;;;;;4.60;3.97;;;;;;;;;;4973868;28;20835;-51
2022/09/06 05:21:14;;;;;;;4.50;4.03;;;;;;;;;;4973514;28;20414;-54
2022/09/06 05:23:40;;;;;;;4.83;4.00;;;;;;;;;;4973698;28;20725;-54
2022/09/06 05:26:06;;;;;;;9.87;4.30;;;;;;;;;;4972675;28;20429;-52
2022/09/06 05:28:33;;;;;;;4.63;4.23;;;;;;;;;;4973740;28;20408;-54
2022/09/06 05:31:09;;;;;;;9.50;3.63;;;;;;;;;;4973623;28;20509;-53
2022/09/06 05:33:35;;;;;;;4.80;3.90;;;;;;;;;;4973412;28;20461;-52
2022/09/06 05:36:02;;;;;;;4.97;4.00;;;;;;;;;;4972753;28;20430;-53
2022/09/06 05:38:28;;;;;;;4.27;3.90;;;;;;;;;;4972762;28;20424;-53
2022/09/06 05:40:53;;;;;;;4.90;3.50;;;;;;;;;;4972132;28;20789;-53
2022/09/06 05:43:19;;;;;;;6.37;4.03;;;;;;;;;;4973222;28;20406;-52
2022/09/06 05:45:45;;;;;;;7.37;4.37;;;;;;;;;;4972611;28;20427;-53
2022/09/06 05:48:11;;;;;;;6.40;4.57;;;;;;;;;;4973250;28;20415;-54
2022/09/06 05:50:37;;;;;;;8.53;4.47;;;;;;;;;;4973314;28;20408;-53
2022/09/06 05:53:03;;;;;;;8.50;5.33;;;;;;;;;;4973079;28;20551;-52
2022/09/06 05:55:29;;;;;;;7.20;4.80;;;;;;;;;;4972588;28;20520;-52
2022/09/06 05:57:55;;;;;;;4.40;4.00;;;;;;;;;;4972955;28;20562;-51
2022/09/06 06:00:21;;;;;;;6.13;3.93;;;;;;;;;;4973092;28;20400;-53
2022/09/06 06:02:48;;;;;;;5.40;3.40;;;;;;;;;;4973136;28;20948;-53
2022/09/06 06:05:14;;;;;;;5.60;3.57;;;;;;;;;;4972859;28;21056;-52
2022/09/06 06:07:40;;;;;;;5.53;4.27;;;;;;;;;;4972446;28;20410;-50
2022/09/06 06:10:06;;;;;;;7.70;4.17;;;;;;;;;;4971858;28;20607;-51
2022/09/06 06:12:32;;;;;;;4.60;3.70;;;;;;;;;;4972359;28;20473;-51
2022/09/06 06:14:58;;;;;;;4.20;3.80;;;;;;;;;;4972666;28;20483;-50
2022/09/06 06:17:24;;;;;;;6.33;4.20;;;;;;;;;;4972532;28;20496;-51
2022/09/06 06:19:50;;;;;;;7.40;5.60;;;;;;;;;;4972844;28;20911;-51
2022/09/06 06:22:16;;;;;;;4.33;4.00;;;;;;;;;;4972795;28;20487;-50
2022/09/06 06:24:42;;;;;;;7.27;4.10;;;;;;;;;;4969237;28;20430;-53
2022/09/06 06:27:08;;;;;;;5.83;3.63;;;;;;;;;;4976607;28;20441;-54
2022/09/06 06:29:34;;;;;;;5.27;4.20;;;;;;;;;;4953391;28;20428;-53
2022/09/06 06:32:00;;;;;;;4.50;4.10;;;;;;;;;;4953805;28;20467;-50
2022/09/06 06:34:26;;;;;;;5.30;3.90;;;;;;;;;;4953385;28;20481;-50
2022/09/06 06:36:52;;;;;;;4.10;3.80;;;;;;;;;;4953301;28;20421;-51
2022/09/06 06:39:18;;;;;;;5.63;4.03;;;;;;;;;;4955841;28;20432;-48
2022/09/06 06:41:44;;;;;;;6.07;3.67;;;;;;;;;;4971996;28;20415;-49
2022/09/06 06:44:10;;;;;;;4.27;3.87;;;;;;;;;;4971688;28;20495;-53
2022/09/06 06:46:37;;;;;;;4.40;3.20;;;;;;;;;;4970089;28;20428;-52
2022/09/06 06:49:03;;;;;;;7.73;3.70;;;;;;;;;;4971243;28;20401;-52
2022/09/06 06:51:31;;;;;;;8.40;5.80;;;;;;;;;;4975699;28;20431;-53
2022/09/06 06:53:57;;;;;;;8.40;4.00;;;;;;;;;;4975086;28;20415;-53
2022/09/06 06:56:24;;;;;;;5.40;3.70;;;;;;;;;;4974164;28;20428;-53
2022/09/06 06:58:51;;;;;;;7.63;3.60;;;;;;;;;;4975938;28;20419;-53
2022/09/06 07:01:19;;;;;;;9.03;4.23;;;;;;;;;;4976240;28;20415;-53
2022/09/06 07:03:48;;;;;;;7.20;3.30;;;;;;;;;;4976115;28;20405;-52
2022/09/06 07:06:14;;;;;;;3.30;3.10;;;;;;;;;;4975324;28;20432;-53
2022/09/06 07:08:41;;;;;;;4.93;4.10;;;;;;;;;;4976114;28;20401;-52
2022/09/06 07:11:08;;;;;;;9.70;6.50;;;;;;;;;;4975045;28;20435;-50
2022/09/06 07:13:34;;;;;;;8.80;6.67;;;;;;;;;;4975781;28;20468;-52
2022/09/06 07:16:12;;;;;;;12.33;8.20;;;;;;;;;;4975200;28;20837;-53
2022/09/06 07:18:41;;;;;;;9.93;7.40;;;;;;;;;;4975797;28;20488;-51
2022/09/06 07:21:11;;;;;;;7.07;3.80;;;;;;;;;;4976569;28;20496;-50
2022/09/06 07:23:37;;;;;;;4.00;3.27;;;;;;;;;;4975775;28;20816;-50
2022/09/06 07:26:03;;;;;;;5.10;3.40;;;;;;;;;;4975049;28;20806;-51
2022/09/06 07:28:30;;;;;;;3.00;2.73;;;;;;;;;;4975783;28;20412;-52
2022/09/06 07:30:56;;;;;;;3.53;3.00;;;;;;;;;;4975511;28;20409;-51
2022/09/06 07:33:22;;;;;;;4.03;2.47;;;;;;;;;;4975496;28;20468;-51
2022/09/06 07:35:55;;;;;;;3.80;2.50;;;;;;;;;;4974406;28;21667;-51
2022/09/06 07:38:21;;;;;;;3.67;2.43;;;;;;;;;;4975370;28;20445;-51
2022/09/06 07:40:52;;;;;;;3.00;2.63;;;;;;;;;;4974430;28;20464;-51
2022/09/06 07:43:18;;;;;;;4.90;2.40;;;;;;;;;;4974970;28;20409;-51
2022/09/06 07:45:44;;;;;;;2.80;2.70;;;;;;;;;;4974542;28;20436;-52
2022/09/06 07:48:10;;;;;;;2.70;2.50;;;;;;;;;;4975460;28;20428;-51
2022/09/06 07:50:36;;;;;;;3.83;2.20;;;;;;;;;;4975368;28;20409;-50
2022/09/06 07:53:05;;;;;;;2.80;2.20;;;;;;;;;;4974260;28;20539;-51
2022/09/06 07:55:31;;;;;;;1.97;1.70;;;;;;;;;;4974667;28;20432;-51
2022/09/06 07:57:57;;;;;;;2.40;1.80;;;;;;;;;;4975165;28;20482;-52
2022/09/06 08:00:24;;;;;;;2.23;1.37;;;;;;;;;;4974737;28;20408;-52
2022/09/06 08:02:50;;;;;;;4.47;2.33;;;;;;;;;;4975086;28;20536;-52
2022/09/06 08:05:16;;;;;;;2.03;1.83;;;;;;;;;;4974789;28;20523;-52
2022/09/06 08:07:41;;;;;;;1.73;1.60;;;;;;;;;;4974399;28;20408;-51
2022/09/06 08:10:08;;;;;;;1.70;1.60;;;;;;;;;;4974065;28;20447;-51
2022/09/06 08:12:34;;;;;;;3.07;1.97;;;;;;;;;;4974274;28;20459;-51
2022/09/06 08:15:00;;;;;;;2.23;1.50;;;;;;;;;;4974589;28;20405;-51
2022/09/06 08:17:25;;;;;;;2.33;1.40;;;;;;;;;;4974243;28;20455;-50
2022/09/06 08:19:51;;;;;;;2.80;1.33;;;;;;;;;;4973338;28;20403;-52
2022/09/06 08:22:17;;;;;;;2.23;1.50;;;;;;;;;;4974713;28;20886;-52
2022/09/06 08:24:43;;;;;;;1.63;1.53;;;;;;;;;;4974660;28;20812;-51
2022/09/06 08:27:10;;;;;;;1.30;1.10;;;;;;;;;;4974287;28;20507;-51
2022/09/06 08:29:36;;;;;;;6.20;2.40;;;;;;;;;;4974636;28;20432;-51
2022/09/06 08:32:02;;;;;;;1.33;1.23;;;;;;;;;;4974418;28;20453;-51
2022/09/06 08:34:28;;;;;;;2.10;1.73;;;;;;;;;;4974338;28;20437;-51
2022/09/06 08:36:54;;;;;;;2.40;1.33;;;;;;;;;;4973781;28;20417;-52
2022/09/06 08:39:20;;;;;;;2.70;1.27;;;;;;;;;;4973213;28;20437;-51
2022/09/06 08:41:55;;;;;;;1.50;1.40;;;;;;;;;;4972931;28;20736;-51
2022/09/06 08:44:27;;;;;;;5.97;1.50;;;;;;;;;;4974181;28;20809;-51
2022/09/06 08:47:03;;;;;;;1.93;1.23;;;;;;;;;;4973630;28;20933;-51
2022/09/06 08:49:30;;;;;;;1.90;1.60;;;;;;;;;;4974123;28;20882;-51
2022/09/06 08:52:12;;;;;;;2.30;1.30;;;;;;;;;;4974300;28;20506;-51
2022/09/06 08:54:38;;;;;;;5.23;1.40;;;;;;;;;;4973143;28;20420;-50
2022/09/06 08:57:09;;;;;;;2.50;1.50;;;;;;;;;;4972131;28;20478;-50
2022/09/06 08:59:44;;;;;;;5.43;1.50;;;;;;;;;;4973910;28;20428;-51
2022/09/06 09:02:10;;;;;;;2.63;1.17;;;;;;;;;;4974085;28;20943;-52
2022/09/06 09:04:38;;;;;;;1.73;1.17;;;;;;;;;;4973548;28;20417;-52
2022/09/06 09:07:21;;;;;;;1.47;1.33;;;;;;;;;;4973355;28;20517;-52
2022/09/06 09:09:47;;;;;;;1.43;1.30;;;;;;;;;;4973492;28;20528;-51
2022/09/06 09:12:14;;;;;;;1.30;1.20;;;;;;;;;;4973050;28;20956;-51
2022/09/06 09:14:42;;;;;;;1.90;1.20;;;;;;;;;;4973536;28;20416;-50
2022/09/06 09:17:15;;;;;;;1.97;1.50;;;;;;;;;;4972886;28;20503;-51
2022/09/06 09:19:41;;;;;;;1.20;1.10;;;;;;;;;;4972169;28;20401;-51
2022/09/06 09:22:08;;;;;;;1.87;1.30;;;;;;;;;;4973580;28;20408;-51
2022/09/06 09:24:34;;;;;;;4.90;2.20;;;;;;;;;;4973482;28;20413;-50
2022/09/06 09:27:07;;;;;;;1.87;1.50;;;;;;;;;;4972895;28;20436;-51
2022/09/06 09:29:53;;;;;;;1.20;1.10;;;;;;;;;;4973466;28;20397;-51
2022/09/06 09:32:32;;;;;;;1.23;0.90;;;;;;;;;;4973343;28;20452;-52
2022/09/06 09:35:17;;;;;;;1.73;1.00;;;;;;;;;;4971537;28;20409;-51
2022/09/06 09:37:44;;;;;;;1.57;1.20;;;;;;;;;;4972962;28;20412;-51
2022/09/06 09:40:14;;;;;;;1.30;1.20;;;;;;;;;;4973220;28;20463;-51
2022/09/06 09:42:40;;;;;;;1.40;1.10;;;;;;;;;;4973247;28;20897;-48
2022/09/06 09:45:24;;;;;;;1.30;1.07;;;;;;;;;;4972899;28;20444;-49
2022/09/06 09:47:50;;;;;;;1.70;1.13;;;;;;;;;;4972847;28;20408;-48
2022/09/06 09:50:27;;;;;;;2.43;1.03;;;;;;;;;;4970594;28;20433;-48
2022/09/06 09:52:53;;;;;;;1.03;0.97;;;;;;;;;;4972500;28;20456;-48
2022/09/06 09:55:25;;;;;;;1.67;1.07;;;;;;;;;;4972919;28;20456;-50
2022/09/06 09:57:55;;;;;;;1.20;1.03;;;;;;;;;;4972197;28;20421;-49
2022/09/06 10:00:35;;;;;;;1.63;1.10;;;;;;;;;;4970152;28;20443;-49
2022/09/06 10:03:10;;;;;;;1.47;1.20;;;;;;;;;;4973084;28;20467;-48
2022/09/06 10:05:36;;;;;;;1.00;0.93;;;;;;;;;;4972106;28;20903;-48
2022/09/06 10:08:02;;;;;;;2.13;1.10;;;;;;;;;;4973058;28;20441;-49
2022/09/06 10:10:31;;;;;;;1.13;1.00;;;;;;;;;;4972915;28;20664;-48
2022/09/06 10:13:18;;;;;;;3.10;0.97;;;;;;;;;;4972883;28;20869;-49
2022/09/06 10:15:44;;;;;;;1.40;1.10;;;;;;;;;;4970077;28;20452;-48
2022/09/06 10:18:30;;;;;;;2.40;1.33;;;;;;;;;;4971155;28;20499;-48
2022/09/06 10:20:59;;;;;;;1.47;1.00;;;;;;;;;;4972600;28;20397;-49
2022/09/06 10:23:34;;;;;;;1.30;1.10;;;;;;;;;;4973647;28;20495;-49
2022/09/06 10:26:19;;;;;;;1.53;1.10;;;;;;;;;;4976097;28;20459;-49
2022/09/06 10:28:45;;;;;;;1.10;1.00;;;;;;;;;;4976846;28;20772;-50
2022/09/06 10:31:14;;;;;;;1.53;1.30;;;;;;;;;;4976783;28;20904;-50
2022/09/06 10:33:43;;;;;;;1.20;1.10;;;;;;;;;;4976670;28;20817;-49
2022/09/06 10:36:09;;;;;;;1.47;1.10;;;;;;;;;;4973927;28;20456;-49
2022/09/06 10:38:52;;;;;;;1.97;0.90;;;;;;;;;;4973903;28;20433;-49
2022/09/06 10:41:33;;;;;;;1.10;1.00;;;;;;;;;;4976495;28;20649;-50
2022/09/06 10:44:11;;;;;;;1.70;1.10;;;;;;;;;;4976406;28;20881;-49
2022/09/06 10:46:40;;;;;;;3.63;1.20;;;;;;;;;;4975220;28;20957;-49
2022/09/06 10:49:09;;;;;;;1.10;1.00;;;;;;;;;;4976409;28;20903;-48
2022/09/06 10:51:40;;;;;;;1.23;1.00;;;;;;;;;;4976344;28;20896;-49
2022/09/06 10:54:13;;;;;;;3.97;0.93;;;;;;;;;;4974738;28;20436;-50
2022/09/06 10:56:39;;;;;;;1.10;1.00;;;;;;;;;;4974677;28;21000;-48
2022/09/06 10:59:14;;;;;;;1.30;1.20;;;;;;;;;;4976116;28;20460;-49
2022/09/06 11:01:55;;;;;;;1.23;1.13;;;;;;;;;;4976080;28;20207;-49
2022/09/06 11:04:29;;;;;;;2.13;1.50;;;;;;;;;;4968360;28;20459;-48
2022/09/06 11:06:57;;;;;;;2.77;1.10;;;;;;;;;;4956217;29;20790;-48
2022/09/06 11:09:28;;;;;;;3.07;1.10;;;;;;;;;;4956781;29;20405;-47
2022/09/06 11:12:03;;;;;;;4.17;1.30;;;;;;;;;;4956665;29;20425;-47
2022/09/06 11:14:29;;;;;;;3.33;1.07;;;;;;;;;;4956521;29;20409;-47
2022/09/06 11:17:03;;;;;;;1.87;1.17;;;;;;;;;;4973305;28;20448;-47
2022/09/06 11:19:32;;;;;;;3.87;1.40;;;;;;;;;;4975793;28;20412;-47
2022/09/06 11:22:01;;;;;;;1.20;1.10;;;;;;;;;;4975750;28;20443;-47
2022/09/06 11:24:27;;;;;;;0.97;0.87;;;;;;;;;;4974885;28;20436;-46
2022/09/06 11:27:05;;;;;;;1.27;1.17;;;;;;;;;;4975253;28;20771;-47
2022/09/06 11:29:32;;;;;;;3.00;1.10;;;;;;;;;;4976093;28;20181;-50
2022/09/06 11:32:02;;;;;;;1.60;1.30;;;;;;;;;;4976037;28;20743;-49
2022/09/06 11:34:32;;;;;;;1.93;1.30;;;;;;;;;;4973738;28;20429;-47
2022/09/06 11:36:59;;;;;;;4.00;1.30;;;;;;;;;;4973696;28;20432;-47
2022/09/06 11:39:30;;;;;;;1.27;1.10;;;;;;;;;;4975819;28;20398;-47
2022/09/06 11:41:57;;;;;;;2.17;1.30;;;;;;;;;;4975374;28;20404;-47
2022/09/06 11:44:43;;;;;;;1.60;1.20;;;;;;;;;;4974921;28;20411;-48
2022/09/06 11:47:10;;;;;;;1.73;1.30;;;;;;;;;;4944850;28;20439;-48
2022/09/06 11:49:37;;;;;;;2.20;1.47;;;;;;;;;;4975023;28;20785;-51
2022/09/06 11:52:23;;;;;;;5.23;1.30;;;;;;;;;;4975851;28;20527;-50
2022/09/06 11:54:50;;;;;;;3.90;1.43;;;;;;;;;;4975464;28;20405;-50
2022/09/06 11:57:20;;;;;;;9.80;1.70;;;;;;;;;;4974839;28;20809;-51
2022/09/06 11:59:46;;;;;;;1.20;1.10;;;;;;;;;;4975202;28;20444;-46
2022/09/06 12:02:33;;;;;;;2.80;0.97;;;;;;;;;;4975314;28;20856;-46
2022/09/06 12:04:59;;;;;;;1.40;1.20;;;;;;;;;;4974834;28;20169;-45
2022/09/06 12:07:26;;;;;;;2.40;1.53;;;;;;;;;;4974533;28;20749;-46
2022/09/06 12:09:52;;;;;;;2.10;1.20;;;;;;;;;;4973768;28;20790;-48
2022/09/06 12:12:37;;;;;;;1.10;1.00;;;;;;;;;;4974148;28;20456;-49
2022/09/06 12:15:22;;;;;;;2.10;1.50;;;;;;;;;;4974576;28;20401;-47
2022/09/06 12:17:48;;;;;;;5.70;1.37;;;;;;;;;;4972128;28;20417;-45
2022/09/06 12:20:33;;;;;;;1.20;1.10;;;;;;;;;;4974543;28;20393;-46
2022/09/06 12:22:59;;;;;;;2.10;1.53;;;;;;;;;;4973105;28;20224;-51
2022/09/06 12:25:34;;;;;;;1.43;1.30;;;;;;;;;;4972873;28;20425;-52
2022/09/06 12:28:01;;;;;;;1.90;1.30;;;;;;;;;;4973272;28;20404;-49
2022/09/06 12:30:31;;;;;;;1.77;1.17;;;;;;;;;;4973538;28;20416;-50
2022/09/06 12:32:58;;;;;;;3.47;1.40;;;;;;;;;;4973955;28;20452;-52
2022/09/06 12:35:25;;;;;;;1.53;1.17;;;;;;;;;;4974467;28;20421;-50
2022/09/06 12:37:55;;;;;;;1.93;1.23;;;;;;;;;;4971979;28;20464;-51
2022/09/06 12:40:22;;;;;;;1.53;1.27;;;;;;;;;;4974756;28;20419;-52
2022/09/06 12:42:50;;;;;;;2.97;1.40;;;;;;;;;;4974586;28;20409;-49
2022/09/06 12:45:17;;;;;;;1.40;1.30;;;;;;;;;;4973882;28;20437;-49
2022/09/06 12:47:44;;;;;;;2.03;1.40;;;;;;;;;;4973477;28;20420;-49
2022/09/06 12:50:10;;;;;;;1.67;1.57;;;;;;;;;;4974156;28;20488;-49
2022/09/06 12:52:46;;;;;;;5.63;1.87;;;;;;;;;;4972168;28;20588;-48
2022/09/06 12:55:27;;;;;;;1.40;1.30;;;;;;;;;;4973828;28;20796;-47
2022/09/06 12:57:55;;;;;;;3.50;1.40;;;;;;;;;;4971309;28;20440;-48
2022/09/06 13:00:21;;;;;;;4.50;1.53;;;;;;;;;;4973796;28;20491;-46
2022/09/06 13:03:07;;;;;;;2.20;1.33;;;;;;;;;;4973983;28;20450;-47
2022/09/06 13:05:34;;;;;;;3.67;1.40;;;;;;;;;;4973714;28;20492;-46
2022/09/06 13:08:02;;;;;;;1.60;1.50;;;;;;;;;;4970960;28;20901;-47
2022/09/06 13:10:28;;;;;;;4.37;1.13;;;;;;;;;;4973399;28;20486;-47
2022/09/06 13:12:56;;;;;;;3.50;1.63;;;;;;;;;;4973683;28;20891;-46
2022/09/06 13:15:24;;;;;;;3.20;1.63;;;;;;;;;;4972192;28;20429;-47
2022/09/06 13:17:50;;;;;;;2.13;1.87;;;;;;;;;;4973198;28;20405;-47
2022/09/06 13:20:25;;;;;;;2.20;1.30;;;;;;;;;;4974165;28;20414;-48
2022/09/06 13:22:53;;;;;;;2.67;1.80;;;;;;;;;;4973486;28;20423;-49
2022/09/06 13:25:19;;;;;;;3.00;1.40;;;;;;;;;;4973218;28;20429;-48
2022/09/06 13:27:45;;;;;;;3.73;1.30;;;;;;;;;;4972932;28;20947;-49
2022/09/06 13:30:29;;;;;;;3.67;1.57;;;;;;;;;;4973443;28;20204;-48
2022/09/06 13:32:55;;;;;;;1.57;1.47;;;;;;;;;;4973375;28;20452;-49
2022/09/06 13:35:22;;;;;;;4.50;1.60;;;;;;;;;;4972883;28;20424;-48
2022/09/06 13:37:48;;;;;;;2.33;1.63;;;;;;;;;;4972790;28;20405;-50
2022/09/06 13:40:33;;;;;;;2.77;2.57;;;;;;;;;;4973675;28;20456;-49
2022/09/06 13:42:59;;;;;;;3.97;2.27;;;;;;;;;;4973280;28;20177;-49
2022/09/06 13:45:32;;;;;;;10.83;1.83;;;;;;;;;;4972982;28;20425;-50
2022/09/06 13:47:58;;;;;;;2.70;1.53;;;;;;;;;;4970430;28;20475;-50
2022/09/06 13:50:25;;;;;;;3.70;1.93;;;;;;;;;;4973184;28;20804;-49
2022/09/06 13:52:51;;;;;;;3.10;1.80;;;;;;;;;;4973230;28;20577;-49
2022/09/06 13:55:20;;;;;;;4.50;1.77;;;;;;;;;;4972587;28;20936;-49
2022/09/06 13:57:45;;;;;;;1.73;1.60;;;;;;;;;;4972390;28;20935;-48
2022/09/06 14:00:12;;;;;;;3.53;1.63;;;;;;;;;;4972982;28;20437;-48
2022/09/06 14:02:41;;;;;;;1.90;1.80;;;;;;;;;;4971177;28;20683;-48
2022/09/06 14:05:07;;;;;;;2.40;2.10;;;;;;;;;;4972089;28;20452;-48
2022/09/06 14:07:33;;;;;;;4.70;1.90;;;;;;;;;;4972683;28;20428;-50
2022/09/06 14:10:02;;;;;;;1.80;1.60;;;;;;;;;;4972976;28;20860;-48
2022/09/06 14:12:28;;;;;;;3.97;1.80;;;;;;;;;;4970983;28;20448;-50
2022/09/06 14:14:54;;;;;;;4.80;1.50;;;;;;;;;;4971729;28;20528;-49
2022/09/06 14:17:20;;;;;;;3.47;2.00;;;;;;;;;;4972257;28;20456;-49
2022/09/06 14:19:48;;;;;;;3.10;2.10;;;;;;;;;;4969167;28;20921;-48
2022/09/06 14:22:14;;;;;;;3.13;1.83;;;;;;;;;;4972837;28;20447;-49
2022/09/06 14:24:40;;;;;;;1.60;1.50;;;;;;;;;;4972781;28;20432;-48
2022/09/06 14:27:07;;;;;;;2.33;2.00;;;;;;;;;;4972248;28;20928;-48
2022/09/06 14:29:33;;;;;;;3.27;1.90;;;;;;;;;;4970434;28;20437;-49
2022/09/06 14:31:59;;;;;;;5.63;1.87;;;;;;;;;;4972260;28;20409;-49
2022/09/06 14:34:26;;;;;;;4.57;1.60;;;;;;;;;;4972594;28;20768;-49
2022/09/06 14:36:52;;;;;;;2.83;1.90;;;;;;;;;;4972082;28;20991;-50
2022/09/06 14:39:19;;;;;;;2.37;2.10;;;;;;;;;;4972648;28;21004;-48
2022/09/06 14:41:46;;;;;;;4.60;1.80;;;;;;;;;;4970431;28;20452;-49
2022/09/06 14:44:11;;;;;;;1.77;1.57;;;;;;;;;;4971954;28;20881;-48
2022/09/06 14:46:37;;;;;;;1.90;1.80;;;;;;;;;;4971928;28;20416;-49
2022/09/06 14:49:06;;;;;;;3.47;1.90;;;;;;;;;;4972551;28;20463;-49
2022/09/06 14:51:32;;;;;;;4.27;1.67;;;;;;;;;;4972503;28;20405;-49